Time;durP1;ratioP1;P1;durP2;ratioP2;P2;SDS_P1;SDS_P2;PMS_P1;PMS_P2;Temp;Humidity;BMP_temperature;BMP_pressure;BME280_temperature;BME280_humidity;BME280_pressure;Samples;Min_cycle;Max_cycle;Signal;HPM_P1;HPM_P2
2023/09/28 00:02:23;;;;;;;7.07;3.70;;;;;;;;;;4973668;28;92518;-88
2023/09/28 00:04:49;;;;;;;7.43;3.90;;;;;;;;;;4961661;28;94906;-88
2023/09/28 00:07:16;;;;;;;7.82;3.65;;;;;;;;;;4951108;28;93218;-87
2023/09/28 00:09:43;;;;;;;8.07;3.67;;;;;;;;;;4955408;28;93105;-82
2023/09/28 00:12:09;;;;;;;8.13;4.10;;;;;;;;;;4951367;28;92564;-88
2023/09/28 00:14:36;;;;;;;7.70;3.85;;;;;;;;;;4951014;28;92529;-87
2023/09/28 00:17:02;;;;;;;8.77;4.00;;;;;;;;;;4950142;28;92924;-87
2023/09/28 00:19:29;;;;;;;8.30;3.75;;;;;;;;;;4951363;28;94094;-87
2023/09/28 00:21:56;;;;;;;7.07;3.50;;;;;;;;;;4950483;28;91686;-88
2023/09/28 00:24:23;;;;;;;7.78;3.45;;;;;;;;;;4945696;28;93139;-87
2023/09/28 00:26:51;;;;;;;8.40;4.25;;;;;;;;;;4944974;28;93006;-88
2023/09/28 00:29:18;;;;;;;7.82;3.80;;;;;;;;;;4952655;28;94894;-88
2023/09/28 00:31:45;;;;;;;7.68;3.65;;;;;;;;;;4948761;28;96012;-88
2023/09/28 00:34:11;;;;;;;6.47;3.50;;;;;;;;;;4950621;28;92576;-88
2023/09/28 00:36:38;;;;;;;7.28;3.40;;;;;;;;;;4942725;28;93967;-88
2023/09/28 00:39:08;;;;;;;7.38;3.63;;;;;;;;;;4940765;28;93256;-88
2023/09/28 00:41:35;;;;;;;8.35;3.67;;;;;;;;;;4951428;28;92773;-87
2023/09/28 00:44:03;;;;;;;8.90;3.75;;;;;;;;;;4949805;28;92895;-88
2023/09/28 00:46:32;;;;;;;7.57;3.47;;;;;;;;;;4951632;28;92543;-88
2023/09/28 00:49:02;;;;;;;7.45;3.67;;;;;;;;;;4947032;28;93497;-88
2023/09/28 00:51:31;;;;;;;6.07;3.20;;;;;;;;;;4942094;28;93643;-86
2023/09/28 00:54:00;;;;;;;8.90;4.10;;;;;;;;;;4951611;28;94795;-86
2023/09/28 00:56:27;;;;;;;7.03;3.83;;;;;;;;;;4955106;28;95908;-87
2023/09/28 00:58:56;;;;;;;6.82;3.60;;;;;;;;;;4947156;28;92849;-89
2023/09/28 01:01:26;;;;;;;8.30;3.80;;;;;;;;;;4957234;28;92494;-88
2023/09/28 01:03:54;;;;;;;7.70;3.60;;;;;;;;;;4946116;28;98571;-88
2023/09/28 01:06:24;;;;;;;8.63;4.10;;;;;;;;;;4963384;28;93884;-89
2023/09/28 01:08:52;;;;;;;6.88;3.47;;;;;;;;;;4971292;28;92540;-87
2023/09/28 01:11:20;;;;;;;8.38;3.80;;;;;;;;;;4975056;28;92059;-88
2023/09/28 01:13:47;;;;;;;8.60;3.70;;;;;;;;;;4972276;28;91974;-88
2023/09/28 01:16:13;;;;;;;8.27;3.47;;;;;;;;;;4973973;28;92531;-89
2023/09/28 01:18:40;;;;;;;6.80;3.42;;;;;;;;;;4988581;28;94870;-88
2023/09/28 01:21:10;;;;;;;9.55;3.88;;;;;;;;;;4976324;28;92349;-88
2023/09/28 01:23:37;;;;;;;6.78;3.30;;;;;;;;;;4976343;28;92381;-88
2023/09/28 01:26:03;;;;;;;7.50;3.65;;;;;;;;;;4976602;28;92000;-88
2023/09/28 01:28:30;;;;;;;7.40;3.78;;;;;;;;;;4976281;28;93031;-89
2023/09/28 01:30:57;;;;;;;8.45;3.80;;;;;;;;;;4977051;28;91566;-87
2023/09/28 01:33:24;;;;;;;6.30;3.08;;;;;;;;;;4980047;28;92159;-89
2023/09/28 01:35:51;;;;;;;7.63;3.70;;;;;;;;;;4975665;28;91577;-87
2023/09/28 01:38:20;;;;;;;7.32;3.50;;;;;;;;;;4975833;28;93168;-90
2023/09/28 01:40:47;;;;;;;7.93;3.58;;;;;;;;;;4975952;28;91814;-90
2023/09/28 01:43:16;;;;;;;7.20;3.83;;;;;;;;;;4971062;28;94109;-90
2023/09/28 01:45:43;;;;;;;7.38;3.50;;;;;;;;;;4963835;28;92423;-82
2023/09/28 01:48:11;;;;;;;7.93;3.70;;;;;;;;;;4994846;28;92538;-89
2023/09/28 01:50:37;;;;;;;8.93;3.30;;;;;;;;;;4961629;28;93058;-89
2023/09/28 01:53:04;;;;;;;7.82;3.42;;;;;;;;;;4948751;28;94839;-88
2023/09/28 01:55:31;;;;;;;7.72;3.78;;;;;;;;;;4949994;28;92712;-89
2023/09/28 01:57:58;;;;;;;7.95;3.80;;;;;;;;;;4950692;28;94472;-89
2023/09/28 02:00:26;;;;;;;;;;;;;;;;;;4952835;28;91881;-87
2023/09/28 02:02:54;;;;;;;7.90;3.70;;;;;;;;;;4953899;28;106644;-88
2023/09/28 02:05:22;;;;;;;7.25;3.33;;;;;;;;;;4927938;28;95319;-89
2023/09/28 02:07:49;;;;;;;8.40;3.53;;;;;;;;;;4950610;28;94958;-89
2023/09/28 02:10:19;;;;;;;7.60;3.88;;;;;;;;;;4953032;28;94360;-88
2023/09/28 02:12:45;;;;;;;8.07;3.70;;;;;;;;;;4954822;28;93015;-89
2023/09/28 02:15:15;;;;;;;6.93;3.22;;;;;;;;;;4954600;28;92820;-87
2023/09/28 02:17:42;;;;;;;8.60;3.40;;;;;;;;;;4953323;28;96248;-88
2023/09/28 02:20:09;;;;;;;;;;;;;;;;;;4934184;28;92558;-89
2023/09/28 02:22:41;;;;;;;7.78;3.78;;;;;;;;;;4934656;28;92836;-88
2023/09/28 02:25:19;;;;;;;7.50;3.55;;;;;;;;;;4948358;28;95230;-86
2023/09/28 02:27:46;;;;;;;7.88;3.53;;;;;;;;;;4932764;28;92901;-86
2023/09/28 02:30:13;;;;;;;;;;;;;;;;;;4931678;28;95895;-87
2023/09/28 02:32:40;;;;;;;6.80;3.38;;;;;;;;;;4932238;28;117276;-87
2023/09/28 02:35:07;;;;;;;7.07;3.70;;;;;;;;;;4945738;28;92509;-87
2023/09/28 02:37:34;;;;;;;10.60;4.00;;;;;;;;;;4955908;28;93179;-86
2023/09/28 02:40:04;;;;;;;7.47;3.30;;;;;;;;;;4951390;28;92825;-87
2023/09/28 02:42:32;;;;;;;7.88;3.88;;;;;;;;;;4952862;28;92683;-88
2023/09/28 02:44:59;;;;;;;8.40;3.83;;;;;;;;;;4952324;28;93247;-88
2023/09/28 02:47:29;;;;;;;8.07;3.97;;;;;;;;;;4968039;28;93166;-87
2023/09/28 02:49:55;;;;;;;7.97;3.63;;;;;;;;;;4952519;28;92030;-86
2023/09/28 02:52:22;;;;;;;8.35;4.05;;;;;;;;;;4952534;28;92785;-87
2023/09/28 02:54:48;;;;;;;8.32;3.40;;;;;;;;;;4949468;28;92778;-88
2023/09/28 02:57:15;;;;;;;8.52;3.50;;;;;;;;;;4951321;28;95313;-88
2023/09/28 02:59:43;;;;;;;7.32;3.80;;;;;;;;;;4954936;28;93307;-88
2023/09/28 03:02:09;;;;;;;7.22;3.80;;;;;;;;;;4949735;28;97166;-88
2023/09/28 03:04:37;;;;;;;8.27;3.35;;;;;;;;;;4951454;28;93650;-88
2023/09/28 03:07:04;;;;;;;11.13;3.45;;;;;;;;;;4934325;28;92685;-88
2023/09/28 03:09:32;;;;;;;6.70;3.50;;;;;;;;;;4952607;28;95392;-89
2023/09/28 03:11:59;;;;;;;8.38;3.67;;;;;;;;;;4962983;28;93779;-88
2023/09/28 03:14:26;;;;;;;8.52;3.70;;;;;;;;;;4974345;28;92268;-87
2023/09/28 03:16:53;;;;;;;9.65;3.95;;;;;;;;;;4960246;28;95073;-87
2023/09/28 03:19:20;;;;;;;6.63;3.40;;;;;;;;;;4944917;28;93431;-88
2023/09/28 03:21:46;;;;;;;7.75;3.50;;;;;;;;;;4953085;28;94814;-87
2023/09/28 03:24:13;;;;;;;7.85;3.60;;;;;;;;;;4952881;28;93270;-87
2023/09/28 03:26:39;;;;;;;7.07;3.45;;;;;;;;;;4951167;28;94070;-89
2023/09/28 03:29:06;;;;;;;7.90;3.95;;;;;;;;;;4952344;28;93283;-88
2023/09/28 03:31:33;;;;;;;8.38;3.83;;;;;;;;;;4950327;28;95728;-86
2023/09/28 03:34:01;;;;;;;8.27;3.22;;;;;;;;;;4951426;28;92449;-88
2023/09/28 03:36:30;;;;;;;10.40;3.67;;;;;;;;;;4943172;28;93691;-88
2023/09/28 03:38:57;;;;;;;8.68;3.97;;;;;;;;;;4952131;28;92322;-88
2023/09/28 03:41:24;;;;;;;8.45;4.18;;;;;;;;;;4951722;28;92787;-88
2023/09/28 03:43:51;;;;;;;7.18;3.10;;;;;;;;;;4962936;28;92807;-88
2023/09/28 03:46:19;;;;;;;;;;;;;;;;;;4951128;28;95114;-88
2023/09/28 03:48:46;;;;;;;8.07;3.80;;;;;;;;;;4952267;28;116352;-88
2023/09/28 03:51:14;;;;;;;7.20;3.40;;;;;;;;;;4958059;28;93218;-89
2023/09/28 03:53:41;;;;;;;7.72;3.58;;;;;;;;;;4950317;28;92932;-89
2023/09/28 03:56:08;;;;;;;7.95;3.63;;;;;;;;;;4931232;28;98315;-88
2023/09/28 03:58:35;;;;;;;10.90;3.75;;;;;;;;;;4935504;28;93350;-89
2023/09/28 04:01:03;;;;;;;6.78;3.45;;;;;;;;;;4930498;28;92969;-87
2023/09/28 04:03:30;;;;;;;8.43;3.65;;;;;;;;;;4928735;28;91739;-88
2023/09/28 04:05:56;;;;;;;8.10;3.50;;;;;;;;;;4921512;28;94618;-88
2023/09/28 04:08:23;;;;;;;8.02;3.53;;;;;;;;;;4925054;28;93315;-87
2023/09/28 04:10:50;;;;;;;7.43;3.50;;;;;;;;;;4932572;28;97553;-88
2023/09/28 04:13:17;;;;;;;6.70;3.42;;;;;;;;;;4943890;28;92464;-88
2023/09/28 04:15:43;;;;;;;7.35;3.83;;;;;;;;;;4932029;28;93208;-87
2023/09/28 04:18:10;;;;;;;7.68;3.08;;;;;;;;;;4935707;28;93093;-88
2023/09/28 04:20:37;;;;;;;10.30;3.83;;;;;;;;;;4933779;28;92892;-87
2023/09/28 04:23:05;;;;;;;8.45;3.60;;;;;;;;;;4946587;28;93493;-89
2023/09/28 04:25:34;;;;;;;9.38;3.95;;;;;;;;;;4938513;28;92528;-90
2023/09/28 04:28:01;;;;;;;8.15;3.67;;;;;;;;;;4934081;28;93740;-90
2023/09/28 04:30:27;;;;;;;9.25;3.50;;;;;;;;;;4931280;28;93878;-89
2023/09/28 04:32:54;;;;;;;7.18;3.70;;;;;;;;;;4932133;28;92483;-88
2023/09/28 04:35:21;;;;;;;7.95;4.03;;;;;;;;;;4929053;28;95242;-88
2023/09/28 04:37:48;;;;;;;9.15;3.97;;;;;;;;;;4918889;28;93266;-88
2023/09/28 04:40:15;;;;;;;15.35;4.07;;;;;;;;;;4933870;28;92474;-88
2023/09/28 04:42:42;;;;;;;28.27;4.43;;;;;;;;;;4934708;28;92896;-87
2023/09/28 04:45:09;;;;;;;10.30;4.20;;;;;;;;;;4952301;28;92787;-87
2023/09/28 04:47:36;;;;;;;8.27;4.05;;;;;;;;;;4957788;28;92242;-88
2023/09/28 04:50:04;;;;;;;9.57;3.90;;;;;;;;;;4938998;28;92562;-88
2023/09/28 04:52:31;;;;;;;9.02;4.20;;;;;;;;;;4933344;28;91741;-87
2023/09/28 04:54:57;;;;;;;9.63;3.83;;;;;;;;;;4934095;28;94744;-89
2023/09/28 04:57:25;;;;;;;9.30;3.97;;;;;;;;;;4939150;28;93456;-89
2023/09/28 04:59:53;;;;;;;8.60;3.78;;;;;;;;;;4940064;28;95089;-88
2023/09/28 05:02:20;;;;;;;9.20;4.00;;;;;;;;;;4939460;28;94062;-88
2023/09/28 05:04:47;;;;;;;8.38;3.45;;;;;;;;;;4929362;28;95782;-87
2023/09/28 05:07:14;;;;;;;8.93;4.55;;;;;;;;;;4951274;28;92955;-88
2023/09/28 05:09:42;;;;;;;;;;;;;;;;;;4948106;28;93213;-89
2023/09/28 05:12:09;;;;;;;8.63;4.25;;;;;;;;;;4959855;28;92756;-88
2023/09/28 05:14:36;;;;;;;9.65;4.20;;;;;;;;;;4961334;28;92338;-89
2023/09/28 05:17:02;;;;;;;10.05;4.32;;;;;;;;;;4959979;28;91747;-89
2023/09/28 05:19:30;;;;;;;11.75;5.25;;;;;;;;;;4955841;28;92478;-88
2023/09/28 05:21:59;;;;;;;11.57;4.82;;;;;;;;;;4951594;28;94027;-88
2023/09/28 05:24:25;;;;;;;14.48;5.20;;;;;;;;;;4938231;28;95446;-87
2023/09/28 05:26:52;;;;;;;12.52;4.00;;;;;;;;;;4950119;28;92507;-84
2023/09/28 05:29:18;;;;;;;14.77;4.68;;;;;;;;;;4964824;28;95899;-84
2023/09/28 05:31:46;;;;;;;12.00;4.00;;;;;;;;;;4952694;28;93251;-84
2023/09/28 05:34:13;;;;;;;15.38;4.45;;;;;;;;;;4950361;28;92651;-84
2023/09/28 05:36:40;;;;;;;16.27;4.10;;;;;;;;;;4929881;28;93005;-84
2023/09/28 05:39:08;;;;;;;13.35;3.50;;;;;;;;;;4930904;28;92792;-85
2023/09/28 05:41:35;;;;;;;12.38;2.97;;;;;;;;;;4933624;28;94114;-86
2023/09/28 05:44:01;;;;;;;15.13;3.42;;;;;;;;;;4933399;28;93371;-88
2023/09/28 05:46:28;;;;;;;15.43;3.78;;;;;;;;;;4933481;28;92677;-84
2023/09/28 05:48:54;;;;;;;13.70;3.25;;;;;;;;;;4931813;28;94801;-84
2023/09/28 05:51:21;;;;;;;13.93;3.35;;;;;;;;;;4932953;28;94131;-86
2023/09/28 05:53:50;;;;;;;17.25;3.20;;;;;;;;;;4936137;28;92796;-88
2023/09/28 05:56:17;;;;;;;17.73;3.05;;;;;;;;;;4932374;28;93160;-84
2023/09/28 05:58:44;;;;;;;17.63;3.17;;;;;;;;;;4933670;28;92453;-88
2023/09/28 06:01:13;;;;;;;15.65;3.08;;;;;;;;;;4933769;28;94262;-89
2023/09/28 06:03:39;;;;;;;15.85;3.30;;;;;;;;;;4933161;28;93107;-90
2023/09/28 06:06:32;;;;;;;13.60;3.03;;;;;;;;;;4932653;28;93586;-88
2023/09/28 06:08:59;;;;;;;17.30;3.10;;;;;;;;;;4933654;28;93006;-88
2023/09/28 06:11:25;;;;;;;16.63;3.35;;;;;;;;;;4932923;28;94537;-89
2023/09/28 06:13:52;;;;;;;17.27;3.00;;;;;;;;;;4932108;28;95433;-88
2023/09/28 06:16:36;;;;;;;15.38;2.65;;;;;;;;;;4938473;28;95296;-88
2023/09/28 06:19:03;;;;;;;14.88;2.65;;;;;;;;;;4920188;28;92630;-90
2023/09/28 06:21:29;;;;;;;15.70;3.00;;;;;;;;;;4935624;28;94012;-89
2023/09/28 06:23:56;;;;;;;17.88;2.80;;;;;;;;;;4932558;28;92998;-87
2023/09/28 06:26:22;;;;;;;15.00;2.97;;;;;;;;;;4948724;28;92525;-86
2023/09/28 06:29:07;;;;;;;16.05;2.65;;;;;;;;;;4936698;28;94686;-86
2023/09/28 06:31:33;;;;;;;13.65;2.80;;;;;;;;;;4945659;28;92544;-87
2023/09/28 06:34:00;;;;;;;15.10;2.85;;;;;;;;;;4950261;28;92453;-87
2023/09/28 06:36:28;;;;;;;13.07;2.58;;;;;;;;;;4935889;28;99010;-87
2023/09/28 06:39:08;;;;;;;13.73;2.50;;;;;;;;;;4938155;28;94979;-87
2023/09/28 06:41:36;;;;;;;15.10;2.53;;;;;;;;;;4926483;28;95255;-86
2023/09/28 06:44:03;;;;;;;12.55;2.85;;;;;;;;;;4946067;28;99349;-86
2023/09/28 06:46:29;;;;;;;11.38;2.65;;;;;;;;;;4951297;28;92873;-86
2023/09/28 06:48:56;;;;;;;13.82;2.50;;;;;;;;;;4952736;28;93106;-87
2023/09/28 06:51:25;;;;;;;13.70;2.78;;;;;;;;;;4951179;28;93235;-87
2023/09/28 06:53:52;;;;;;;18.23;3.15;;;;;;;;;;4950807;28;92732;-87
2023/09/28 06:56:20;;;;;;;14.82;2.58;;;;;;;;;;4951156;28;92868;-87
2023/09/28 06:58:47;;;;;;;15.20;2.53;;;;;;;;;;4951578;28;95741;-87
2023/09/28 07:01:13;;;;;;;18.52;2.83;;;;;;;;;;4951219;28;93019;-87
2023/09/28 07:03:40;;;;;;;14.38;2.40;;;;;;;;;;4947687;28;96709;-87
2023/09/28 07:06:07;;;;;;;15.35;3.28;;;;;;;;;;4931403;28;92517;-87
2023/09/28 07:08:33;;;;;;;13.00;2.70;;;;;;;;;;4925572;28;93055;-87
2023/09/28 07:11:01;;;;;;;13.10;2.75;;;;;;;;;;4931861;28;93096;-87
2023/09/28 07:13:27;;;;;;;;;;;;;;;;;;4932883;28;92488;-87
2023/09/28 07:15:56;;;;;;;15.57;2.63;;;;;;;;;;4935264;28;106737;-87
2023/09/28 07:18:25;;;;;;;16.02;2.95;;;;;;;;;;4935001;28;95784;-84
2023/09/28 07:20:53;;;;;;;17.80;2.83;;;;;;;;;;4949012;28;92151;-87
2023/09/28 07:23:19;;;;;;;15.32;2.80;;;;;;;;;;4948914;28;93136;-87
2023/09/28 07:25:46;;;;;;;16.08;2.90;;;;;;;;;;4955237;28;92739;-85
2023/09/28 07:28:12;;;;;;;17.63;3.25;;;;;;;;;;4937168;28;95229;-85
2023/09/28 07:30:39;;;;;;;21.38;3.45;;;;;;;;;;4950901;28;93440;-85
2023/09/28 07:33:13;;;;;;;17.90;3.47;;;;;;;;;;4951456;28;92941;-84
2023/09/28 07:35:40;;;;;;;16.92;2.90;;;;;;;;;;4952422;28;92969;-80
2023/09/28 07:38:06;;;;;;;19.23;3.35;;;;;;;;;;4951645;28;93027;-84
2023/09/28 07:40:33;;;;;;;18.67;3.00;;;;;;;;;;4952495;28;92711;-82
2023/09/28 07:43:13;;;;;;;15.95;2.92;;;;;;;;;;4953293;28;94535;-85
2023/09/28 07:45:40;;;;;;;19.40;3.70;;;;;;;;;;4949078;28;91723;-83
2023/09/28 07:48:07;;;;;;;19.60;3.25;;;;;;;;;;4949573;28;95193;-84
2023/09/28 07:50:34;;;;;;;17.00;3.30;;;;;;;;;;4944164;28;93993;-86
2023/09/28 07:53:01;;;;;;;18.23;3.38;;;;;;;;;;4951198;28;94973;-85
2023/09/28 07:55:27;;;;;;;19.00;3.53;;;;;;;;;;4945589;28;95249;-86
2023/09/28 07:57:54;;;;;;;13.77;2.70;;;;;;;;;;4968208;28;96185;-85
2023/09/28 08:00:28;;;;;;;21.58;3.72;;;;;;;;;;4951629;28;92570;-85
2023/09/28 08:02:55;;;;;;;19.73;2.85;;;;;;;;;;4964410;28;93236;-86
2023/09/28 08:05:22;;;;;;;19.05;3.30;;;;;;;;;;4954602;28;93127;-86
2023/09/28 08:07:48;;;;;;;19.73;3.05;;;;;;;;;;4949750;28;93915;-85
2023/09/28 08:10:33;;;;;;;15.90;3.10;;;;;;;;;;4936763;28;95674;-78
2023/09/28 08:13:00;;;;;;;19.40;3.10;;;;;;;;;;4943980;28;93014;-77
2023/09/28 08:15:27;;;;;;;16.42;3.38;;;;;;;;;;4948398;28;92569;-78
2023/09/28 08:18:03;;;;;;;17.35;3.55;;;;;;;;;;4948040;28;96184;-78
2023/09/28 08:20:33;;;;;;;;;;;;;;;;;;4950568;28;92851;-78
2023/09/28 08:23:00;;;;;;;19.35;3.35;;;;;;;;;;4951146;28;93686;-78
2023/09/28 08:25:30;;;;;;;19.48;3.30;;;;;;;;;;4948210;28;93030;-79
2023/09/28 08:27:57;;;;;;;21.08;3.22;;;;;;;;;;4950135;28;92828;-79
2023/09/28 08:30:23;;;;;;;16.40;2.97;;;;;;;;;;4946922;28;93793;-80
2023/09/28 08:32:50;;;;;;;17.42;3.65;;;;;;;;;;4948732;28;93041;-78
2023/09/28 08:35:17;;;;;;;14.05;3.05;;;;;;;;;;4951108;28;92785;-79
2023/09/28 08:37:43;;;;;;;21.23;3.28;;;;;;;;;;4950414;28;93064;-79
2023/09/28 08:40:10;;;;;;;19.13;3.10;;;;;;;;;;4948761;28;92648;-79
2023/09/28 08:42:38;;;;;;;18.33;3.40;;;;;;;;;;4947192;28;94855;-78
2023/09/28 08:45:06;;;;;;;14.85;3.20;;;;;;;;;;4947844;28;93588;-78
2023/09/28 08:47:37;;;;;;;16.00;3.13;;;;;;;;;;4951477;28;92429;-77
2023/09/28 08:50:04;;;;;;;15.88;3.40;;;;;;;;;;4941798;28;93699;-80
2023/09/28 08:52:31;;;;;;;17.83;3.30;;;;;;;;;;4965927;28;92939;-79
2023/09/28 08:54:59;;;;;;;23.05;3.70;;;;;;;;;;4956915;28;92584;-78
2023/09/28 08:57:27;;;;;;;18.45;3.45;;;;;;;;;;4932968;28;94393;-78
2023/09/28 08:59:55;;;;;;;21.10;3.30;;;;;;;;;;4928585;28;92102;-79
2023/09/28 09:02:22;;;;;;;19.08;3.25;;;;;;;;;;4915758;28;92549;-78
2023/09/28 09:04:48;;;;;;;19.42;3.28;;;;;;;;;;4925875;28;93247;-78
2023/09/28 09:07:15;;;;;;;18.42;3.35;;;;;;;;;;4926684;28;94882;-80
2023/09/28 09:09:45;;;;;;;19.65;3.70;;;;;;;;;;4927395;28;95263;-79
2023/09/28 09:12:13;;;;;;;22.15;4.22;;;;;;;;;;4948154;28;99543;-79
2023/09/28 09:14:39;;;;;;;15.68;3.05;;;;;;;;;;4947328;28;92920;-77
2023/09/28 09:17:07;;;;;;;19.50;3.60;;;;;;;;;;4950606;28;92470;-78
2023/09/28 09:19:38;;;;;;;20.95;3.67;;;;;;;;;;4951601;28;92488;-77
2023/09/28 09:22:04;;;;;;;16.23;3.28;;;;;;;;;;4953155;28;92789;-78
2023/09/28 09:24:51;;;;;;;19.38;3.30;;;;;;;;;;4953398;28;92711;-80
2023/09/28 09:27:24;;;;;;;18.42;3.53;;;;;;;;;;4958357;28;93186;-76
2023/09/28 09:29:50;;;;;;;19.90;3.65;;;;;;;;;;4951838;28;92850;-78
2023/09/28 09:32:20;;;;;;;17.38;3.00;;;;;;;;;;4955995;28;95204;-75
2023/09/28 09:34:47;;;;;;;19.15;4.18;;;;;;;;;;4954513;28;97180;-78
2023/09/28 09:37:14;;;;;;;19.40;3.30;;;;;;;;;;4958123;28;93631;-78
2023/09/28 09:39:41;;;;;;;16.45;3.25;;;;;;;;;;4955869;28;92512;-77
2023/09/28 09:42:08;;;;;;;15.00;3.85;;;;;;;;;;4955282;28;93300;-77
2023/09/28 09:44:34;;;;;;;;;;;;;;;;;;4949092;28;93818;-77
2023/09/28 09:47:02;;;;;;;18.60;3.60;;;;;;;;;;4952851;28;97181;-77
2023/09/28 09:49:29;;;;;;;18.48;3.30;;;;;;;;;;4951548;28;92812;-78
2023/09/28 09:51:58;;;;;;;16.58;3.30;;;;;;;;;;4965072;28;93277;-78
2023/09/28 09:54:25;;;;;;;18.10;3.85;;;;;;;;;;4967481;28;93141;-78
2023/09/28 09:56:52;;;;;;;17.67;3.25;;;;;;;;;;4948345;28;95641;-77
2023/09/28 09:59:20;;;;;;;13.60;3.20;;;;;;;;;;4964195;28;93004;-78
2023/09/28 10:01:48;;;;;;;18.27;2.88;;;;;;;;;;4945008;28;92857;-77
2023/09/28 10:04:16;;;;;;;19.15;3.33;;;;;;;;;;4950709;28;93239;-78
2023/09/28 10:06:58;;;;;;;12.98;3.22;;;;;;;;;;4950577;28;92499;-77
2023/09/28 10:09:25;;;;;;;16.17;3.20;;;;;;;;;;4965519;28;96000;-77
2023/09/28 10:11:54;;;;;;;18.17;3.20;;;;;;;;;;4962831;28;93981;-78
2023/09/28 10:14:21;;;;;;;18.88;3.40;;;;;;;;;;4950435;28;91925;-77
2023/09/28 10:16:49;;;;;;;15.70;3.40;;;;;;;;;;4955379;28;92521;-80
2023/09/28 10:19:19;;;;;;;19.25;3.00;;;;;;;;;;4960635;28;92945;-83
2023/09/28 10:21:46;;;;;;;12.90;2.58;;;;;;;;;;4959891;28;94944;-83
2023/09/28 10:24:13;;;;;;;13.80;2.95;;;;;;;;;;4932243;28;94060;-83
2023/09/28 10:26:51;;;;;;;12.68;2.80;;;;;;;;;;4960446;28;92630;-83
2023/09/28 10:29:23;;;;;;;10.93;2.55;;;;;;;;;;4963196;28;93557;-83
2023/09/28 10:31:53;;;;;;;10.60;2.42;;;;;;;;;;4946801;28;93441;-83
2023/09/28 10:34:27;;;;;;;10.82;2.40;;;;;;;;;;4948592;28;92638;-83
2023/09/28 10:37:07;;;;;;;12.45;2.92;;;;;;;;;;4964834;28;96156;-83
2023/09/28 10:39:35;;;;;;;11.98;2.60;;;;;;;;;;4950097;28;91791;-82
2023/09/28 10:42:21;;;;;;;15.27;3.13;;;;;;;;;;4953182;28;93068;-83
2023/09/28 10:44:55;;;;;;;12.65;2.70;;;;;;;;;;4969871;28;95920;-82
2023/09/28 10:47:23;;;;;;;10.40;2.30;;;;;;;;;;4944196;28;95171;-83
2023/09/28 10:49:59;;;;;;;11.25;2.33;;;;;;;;;;4930800;28;95822;-84
2023/09/28 10:52:26;;;;;;;14.90;3.10;;;;;;;;;;4949821;28;94460;-83
2023/09/28 10:54:53;;;;;;;13.20;2.70;;;;;;;;;;4941665;28;93439;-82
2023/09/28 10:57:27;;;;;;;13.07;2.55;;;;;;;;;;4949242;28;94424;-82
2023/09/28 10:59:58;;;;;;;11.60;2.35;;;;;;;;;;4966127;28;92728;-81
2023/09/28 11:02:25;;;;;;;12.93;3.00;;;;;;;;;;4949566;28;92705;-82
2023/09/28 11:04:51;;;;;;;13.55;2.80;;;;;;;;;;4948682;28;92412;-82
2023/09/28 11:07:18;;;;;;;9.48;2.40;;;;;;;;;;4949257;28;92802;-81
2023/09/28 11:09:45;;;;;;;11.55;2.97;;;;;;;;;;4947877;28;93284;-81
2023/09/28 11:12:13;;;;;;;13.65;2.70;;;;;;;;;;4946976;28;96510;-81
2023/09/28 11:14:41;;;;;;;11.18;2.38;;;;;;;;;;4960273;28;92644;-81
2023/09/28 11:17:09;;;;;;;12.30;2.65;;;;;;;;;;4936573;28;92752;-82
2023/09/28 11:19:36;;;;;;;11.88;2.53;;;;;;;;;;4922413;28;93241;-82
2023/09/28 11:22:02;;;;;;;9.88;2.47;;;;;;;;;;4933147;28;92886;-85
2023/09/28 11:24:29;;;;;;;11.13;2.35;;;;;;;;;;4919275;28;93041;-85
2023/09/28 11:26:56;;;;;;;10.35;2.22;;;;;;;;;;4925179;28;92537;-85
2023/09/28 11:29:24;;;;;;;11.82;2.60;;;;;;;;;;4926241;28;93880;-85
2023/09/28 11:31:53;;;;;;;10.63;2.35;;;;;;;;;;4949779;28;92958;-85
2023/09/28 11:34:29;;;;;;;12.13;2.63;;;;;;;;;;4917348;28;92754;-84
2023/09/28 11:36:57;;;;;;;11.30;2.40;;;;;;;;;;4929104;28;94782;-85
2023/09/28 11:39:25;;;;;;;13.25;2.80;;;;;;;;;;4951554;28;93185;-84
2023/09/28 11:41:55;;;;;;;10.32;2.38;;;;;;;;;;4948477;28;92540;-84
2023/09/28 11:44:23;;;;;;;9.63;2.40;;;;;;;;;;4952179;28;93240;-85
2023/09/28 11:46:50;;;;;;;8.70;2.20;;;;;;;;;;4948813;28;92921;-84
2023/09/28 11:49:17;;;;;;;;;;;;;;;;;;4950353;28;92695;-84
2023/09/28 11:51:47;;;;;;;11.52;2.35;;;;;;;;;;4950160;28;93277;-84
2023/09/28 11:54:14;;;;;;;9.02;1.83;;;;;;;;;;4950450;28;92717;-84
2023/09/28 11:56:45;;;;;;;9.40;2.35;;;;;;;;;;4950703;28;92543;-84
2023/09/28 11:59:15;;;;;;;10.50;2.20;;;;;;;;;;4950369;28;93198;-84
2023/09/28 12:01:43;;;;;;;8.77;2.03;;;;;;;;;;4957600;28;94837;-84
2023/09/28 12:04:10;;;;;;;9.27;2.10;;;;;;;;;;4950014;28;99984;-84
2023/09/28 12:06:37;;;;;;;8.95;2.25;;;;;;;;;;4944577;28;92926;-85
2023/09/28 12:09:05;;;;;;;9.05;1.95;;;;;;;;;;4948909;28;92990;-84
2023/09/28 12:11:33;;;;;;;9.10;2.17;;;;;;;;;;4949068;28;94478;-84
2023/09/28 12:13:59;;;;;;;;;;;;;;;;;;4964706;28;92430;-84
2023/09/28 12:16:26;;;;;;;10.40;2.20;;;;;;;;;;4965524;28;116638;-84
2023/09/28 12:18:53;;;;;;;8.75;2.33;;;;;;;;;;4949951;28;95783;-84
2023/09/28 12:21:20;;;;;;;13.30;2.20;;;;;;;;;;4961699;28;93118;-85
2023/09/28 12:23:47;;;;;;;10.35;2.17;;;;;;;;;;4947664;28;93033;-85
2023/09/28 12:26:13;;;;;;;8.18;1.98;;;;;;;;;;4943135;28;95624;-83
2023/09/28 12:28:41;;;;;;;9.77;2.30;;;;;;;;;;4936098;28;92483;-84
2023/09/28 12:31:08;;;;;;;10.00;2.00;;;;;;;;;;4931155;28;93570;-84
2023/09/28 12:33:38;;;;;;;12.35;2.38;;;;;;;;;;4917273;28;92899;-84
2023/09/28 12:36:05;;;;;;;10.43;2.30;;;;;;;;;;4925211;28;93088;-86
2023/09/28 12:38:32;;;;;;;11.93;2.30;;;;;;;;;;4923286;28;93240;-86
2023/09/28 12:40:59;;;;;;;;;;;;;;;;;;4945319;28;92537;-86
2023/09/28 12:43:26;;;;;;;9.65;1.90;;;;;;;;;;4932799;28;93498;-86
2023/09/28 12:45:53;;;;;;;8.27;1.80;;;;;;;;;;4934955;28;92809;-85
2023/09/28 12:48:20;;;;;;;9.20;1.95;;;;;;;;;;4944458;28;92385;-84
2023/09/28 12:50:47;;;;;;;14.23;2.60;;;;;;;;;;4935612;28;96279;-85
2023/09/28 12:53:14;;;;;;;13.90;2.90;;;;;;;;;;4923926;28;92525;-86
2023/09/28 12:55:44;;;;;;;11.30;2.42;;;;;;;;;;4926257;28;92823;-84
2023/09/28 12:58:10;;;;;;;16.40;2.85;;;;;;;;;;4932652;28;92985;-85
2023/09/28 13:00:38;;;;;;;13.75;2.97;;;;;;;;;;4953817;28;92458;-85
2023/09/28 13:03:08;;;;;;;13.40;2.80;;;;;;;;;;4966157;28;93124;-84
2023/09/28 13:05:41;;;;;;;14.73;3.08;;;;;;;;;;4964027;28;92326;-84
2023/09/28 13:08:15;;;;;;;13.43;2.90;;;;;;;;;;4962701;28;91803;-85
2023/09/28 13:10:42;;;;;;;16.88;2.85;;;;;;;;;;4960349;28;92393;-85
2023/09/28 13:13:09;;;;;;;12.98;2.70;;;;;;;;;;4956939;28;92645;-86
2023/09/28 13:15:36;;;;;;;14.32;3.08;;;;;;;;;;4946493;28;94881;-85
2023/09/28 13:18:09;;;;;;;13.15;2.90;;;;;;;;;;4961578;28;93051;-85
2023/09/28 13:20:38;;;;;;;15.98;3.05;;;;;;;;;;4947535;28;92607;-85
2023/09/28 13:23:06;;;;;;;16.08;2.92;;;;;;;;;;4943830;28;92922;-86
2023/09/28 13:25:33;;;;;;;13.85;2.72;;;;;;;;;;4930870;28;93046;-85
2023/09/28 13:27:59;;;;;;;13.32;2.90;;;;;;;;;;4928750;28;92655;-86
2023/09/28 13:30:29;;;;;;;11.60;3.00;;;;;;;;;;4933308;28;93077;-86
2023/09/28 13:32:59;;;;;;;11.48;2.35;;;;;;;;;;4951871;28;92607;-85
2023/09/28 13:35:25;;;;;;;13.10;2.40;;;;;;;;;;4948755;28;93148;-85
2023/09/28 13:37:52;;;;;;;10.50;2.45;;;;;;;;;;4964302;28;93922;-84
2023/09/28 13:40:25;;;;;;;15.10;2.97;;;;;;;;;;4961038;28;94925;-85
2023/09/28 13:42:54;;;;;;;11.38;2.47;;;;;;;;;;4937011;28;95986;-84
2023/09/28 13:45:21;;;;;;;14.73;2.70;;;;;;;;;;4951790;28;92638;-85
2023/09/28 13:47:48;;;;;;;15.70;2.90;;;;;;;;;;4931722;28;92997;-84
2023/09/28 13:50:16;;;;;;;9.05;2.10;;;;;;;;;;4929230;28;92860;-83
2023/09/28 13:52:46;;;;;;;15.48;2.50;;;;;;;;;;4926428;28;93449;-83
2023/09/28 13:55:16;;;;;;;10.15;2.22;;;;;;;;;;4929593;28;93032;-83
2023/09/28 13:57:43;;;;;;;10.82;2.50;;;;;;;;;;4925444;28;91751;-83
2023/09/28 14:00:16;;;;;;;13.43;2.80;;;;;;;;;;4931074;28;92533;-83
2023/09/28 14:02:42;;;;;;;11.40;2.38;;;;;;;;;;4932653;28;92853;-83
2023/09/28 14:05:09;;;;;;;12.77;2.70;;;;;;;;;;4930590;28;95332;-83
2023/09/28 14:07:36;;;;;;;10.02;2.40;;;;;;;;;;4932116;28;92662;-83
2023/09/28 14:10:03;;;;;;;10.90;2.45;;;;;;;;;;4930859;28;92950;-83
2023/09/28 14:12:30;;;;;;;8.55;2.30;;;;;;;;;;4930913;28;92984;-83
2023/09/28 14:14:57;;;;;;;;;;;;;;;;;;4930731;28;92566;-84
2023/09/28 14:17:24;;;;;;;11.05;2.25;;;;;;;;;;4936551;28;100199;-84
2023/09/28 14:19:57;;;;;;;9.02;2.40;;;;;;;;;;4925681;28;94461;-83
2023/09/28 14:22:24;;;;;;;11.10;2.50;;;;;;;;;;4932126;28;92584;-83
2023/09/28 14:24:50;;;;;;;10.55;2.42;;;;;;;;;;4931999;28;92811;-84
2023/09/28 14:27:17;;;;;;;9.75;2.00;;;;;;;;;;4934062;28;92448;-84
2023/09/28 14:29:43;;;;;;;9.00;2.20;;;;;;;;;;4927203;28;95387;-83
2023/09/28 14:32:10;;;;;;;7.10;2.10;;;;;;;;;;4932216;28;93648;-84
2023/09/28 14:34:37;;;;;;;9.65;2.13;;;;;;;;;;4910716;28;93316;-84
2023/09/28 14:37:03;;;;;;;10.88;2.20;;;;;;;;;;4929319;28;93492;-84
2023/09/28 14:39:30;;;;;;;11.00;2.33;;;;;;;;;;4935831;28;93180;-83
2023/09/28 14:41:57;;;;;;;11.38;2.20;;;;;;;;;;4931989;28;92796;-84
2023/09/28 14:44:23;;;;;;;12.40;2.55;;;;;;;;;;4935114;28;95380;-85